Time;durP1;ratioP1;P1;durP2;ratioP2;P2;SDS_P1;SDS_P2;PMS_P1;PMS_P2;Temp;Humidity;BMP_temperature;BMP_pressure;BME280_temperature;BME280_humidity;BME280_pressure;Samples;Min_cycle;Max_cycle;Signal;HPM_P1;HPM_P2
2022/08/09 00:01:00;;;;;;;;;;;;;;;28.61;54.54;101118.78;5034324;28;19967;-81
2022/08/09 00:03:26;;;;;;;;;;;;;;;28.57;54.90;101122.41;5051822;28;19913;-81
2022/08/09 00:05:51;;;;;;;;;;;;;;;28.59;54.42;101117.91;5051628;28;19919;-80
2022/08/09 00:08:17;;;;;;;;;;;;;;;28.55;54.30;101110.81;5033928;28;20377;-81
2022/08/09 00:10:42;;;;;;;;;;;;;;;28.52;54.62;101110.00;5044951;28;20011;-80
2022/08/09 00:13:08;;;;;;;;;;;;;;;28.53;54.32;101115.34;5033995;28;19912;-81
2022/08/09 00:15:33;;;;;;;;;;;;;;;28.55;53.88;101126.06;5039083;28;19913;-80
2022/08/09 00:17:59;;;;;;;;;;;;;;;28.53;53.79;101125.19;5043511;28;20271;-81
2022/08/09 00:20:24;;;;;;;;;;;;;;;28.46;52.72;101121.66;5051998;28;19917;-81
2022/08/09 00:22:50;;;;;;;;;;;;;;;28.46;53.30;101127.03;5033482;28;19912;-81
2022/08/09 00:25:15;;;;;;;;;;;;;;;28.47;52.44;101123.47;5051730;28;19920;-80
2022/08/09 00:27:41;;;;;;;;;;;;;;;28.47;52.38;101122.56;5051325;28;19920;-81
2022/08/09 00:30:07;;;;;;;;;;;;;;;28.43;52.37;101121.72;5041886;28;20398;-82
2022/08/09 00:32:32;;;;;;;;;;;;;;;28.47;52.05;101109.13;5027572;28;19962;-82
2022/08/09 00:34:57;;;;;;;;;;;;;;;28.44;52.54;101107.38;5039250;28;19913;-81
2022/08/09 00:37:23;;;;;;;;;;;;;;;28.38;52.46;101112.81;5051729;28;19921;-81
2022/08/09 00:39:48;;;;;;;;;;;;;;;28.43;52.49;101108.28;5051304;28;19913;-81
2022/08/09 00:42:14;;;;;;;;;;;;;;;28.47;52.55;101095.69;5051414;28;19936;-81
2022/08/09 00:44:39;;;;;;;;;;;;;;;28.47;53.20;101104.66;5051249;28;19920;-81
2022/08/09 00:47:05;;;;;;;;;;;;;;;28.41;53.02;101097.56;5042018;28;19957;-82
2022/08/09 00:49:31;;;;;;;;;;;;;;;28.47;52.90;101106.44;5046870;28;19913;-81
2022/08/09 00:51:56;;;;;;;;;;;;;;;28.52;53.16;101107.31;5033602;28;19948;-81
2022/08/09 00:54:22;;;;;;;;;;;;;;;28.42;52.45;101111.88;5051574;28;19913;-81
2022/08/09 00:56:47;;;;;;;;;;;;;;;28.46;53.36;101101.97;5033125;28;19924;-81
2022/08/09 00:59:13;;;;;;;;;;;;;;;28.47;53.05;101101.97;5051333;28;19913;-81
2022/08/09 01:01:39;;;;;;;;;;;;;;;28.51;53.27;101108.19;5050907;28;19913;-82
2022/08/09 01:04:25;;;;;;;;;;;;;;;28.41;53.73;101099.38;5033649;28;19917;-81
2022/08/09 01:06:54;;;;;;;;;;;;;;;28.45;53.33;101105.56;5046418;28;20055;-81
2022/08/09 01:09:36;;;;;;;;;;;;;;;28.46;53.15;101096.59;5042201;28;20390;-81
2022/08/09 01:12:20;;;;;;;;;;;;;;;28.46;52.85;101100.19;5019448;28;20342;-82
2022/08/09 01:14:51;;;;;;;;;;;;;;;28.48;53.30;101105.53;5049865;28;19920;-81
2022/08/09 01:17:18;;;;;;;;;;;;;;;28.40;53.43;101094.88;5037339;28;19916;-81
2022/08/09 01:19:55;;;;;;;;;;;;;;;28.39;52.57;101087.75;5054544;28;20022;-80
2022/08/09 01:22:24;;;;;;;;;;;;;;;28.42;52.85;101096.63;5054605;28;19919;-80
2022/08/09 01:24:55;;;;;;;;;;;;;;;28.43;52.66;101093.06;5055013;28;20003;-81
2022/08/09 01:27:22;;;;;;;;;;;;;;;28.36;52.89;101087.78;5036756;28;19920;-81
2022/08/09 01:29:50;;;;;;;;;;;;;;;28.40;52.61;101085.03;5054752;28;19920;-81
2022/08/09 01:32:16;;;;;;;;;;;;;;;28.44;52.54;101085.88;5037203;28;19913;-81
2022/08/09 01:34:42;;;;;;;;;;;;;;;28.46;52.90;101091.25;5019913;28;20471;-82
2022/08/09 01:37:09;;;;;;;;;;;;;;;28.43;53.17;101089.50;5036361;28;19928;-81
2022/08/09 01:39:35;;;;;;;;;;;;;;;28.42;52.91;101093.06;5050861;28;19932;-82
2022/08/09 01:42:04;;;;;;;;;;;;;;;28.42;53.08;101093.06;5044340;28;19917;-82
2022/08/09 01:44:29;;;;;;;;;;;;;;;28.42;52.90;101088.56;5054236;28;20368;-80
2022/08/09 01:46:55;;;;;;;;;;;;;;;28.43;52.65;101089.50;5028749;28;20391;-80
2022/08/09 01:49:20;;;;;;;;;;;;;;;28.42;53.13;101087.69;5030731;28;19912;-81
2022/08/09 01:51:47;;;;;;;;;;;;;;;28.33;52.79;101085.16;5030884;28;19951;-80
2022/08/09 01:54:14;;;;;;;;;;;;;;;28.29;52.95;101084.31;5025772;28;20332;-81
2022/08/09 01:56:40;;;;;;;;;;;;;;;28.32;53.04;101086.97;5053293;28;19921;-82
2022/08/09 01:59:07;;;;;;;;;;;;;;;28.34;52.67;101086.91;5066074;28;20404;-82
2022/08/09 02:01:32;;;;;;;;;;;;;;;28.36;53.02;101085.09;5040214;28;19920;-82
2022/08/09 02:03:58;;;;;;;;;;;;;;;28.34;53.14;101086.91;5022510;28;19927;-80
2022/08/09 02:09:09;;;;;;;;;;;;;;;28.33;52.78;101085.16;5052202;28;19919;-81
2022/08/09 02:11:34;;;;;;;;;;;;;;;28.31;53.44;101082.47;5026506;28;19913;-81
2022/08/09 02:14:00;;;;;;;;;;;;;;;28.27;53.15;101091.50;5049813;28;19966;-82
2022/08/09 02:16:25;;;;;;;;;;;;;;;28.35;53.02;101089.59;5036339;28;19917;-81
2022/08/09 02:18:50;;;;;;;;;;;;;;;28.40;53.22;101093.09;5054083;28;19913;-81
2022/08/09 02:21:17;;;;;;;;;;;;;;;28.41;53.16;101088.63;5053844;28;19912;-81
2022/08/09 02:23:44;;;;;;;;;;;;;;;28.37;53.32;101095.81;5036003;28;19987;-80
2022/08/09 02:26:10;;;;;;;;;;;;;;;28.41;53.33;101094.88;5021930;28;19913;-81
2022/08/09 02:28:39;;;;;;;;;;;;;;;28.31;52.85;101098.59;5025902;28;19967;-81
2022/08/09 02:31:06;;;;;;;;;;;;;;;28.15;53.03;101091.66;5049258;28;19971;-81
2022/08/09 02:33:36;;;;;;;;;;;;;;;28.15;52.87;101097.94;5035914;28;20272;-81
2022/08/09 02:36:02;;;;;;;;;;;;;;;28.16;52.32;101096.13;5034985;28;19921;-81
2022/08/09 02:38:30;;;;;;;;;;;;;;;28.09;52.29;101094.41;5035685;28;19917;-82
2022/08/09 02:40:58;;;;;;;;;;;;;;;28.11;52.14;101108.72;5053547;28;20301;-81
2022/08/09 02:43:23;;;;;;;;;;;;;;;28.01;52.52;101106.16;5047876;28;19940;-81
2022/08/09 02:45:49;;;;;;;;;;;;;;;28.01;52.08;101105.28;5016158;28;19916;-81
2022/08/09 02:48:14;;;;;;;;;;;;;;;28.10;51.82;101097.09;5032704;28;20424;-80
2022/08/09 02:50:44;;;;;;;;;;;;;;;28.20;51.22;101103.25;5053348;28;19966;-81
2022/08/09 02:53:24;;;;;;;;;;;;;;;28.21;51.66;101100.53;5035240;28;20398;-81
2022/08/09 02:55:49;;;;;;;;;;;;;;;28.23;51.89;101106.75;5034851;28;19917;-81
2022/08/09 02:58:15;;;;;;;;;;;;;;;28.28;51.62;101111.16;5052252;28;19916;-81
2022/08/09 03:00:41;;;;;;;;;;;;;;;28.29;52.20;101113.84;5034713;28;19912;-81
2022/08/09 03:03:06;;;;;;;;;;;;;;;28.33;51.95;101114.69;5022457;28;19971;-81
2022/08/09 03:05:32;;;;;;;;;;;;;;;28.29;51.78;101115.66;5049719;28;19913;-81
2022/08/09 03:07:57;;;;;;;;;;;;;;;28.31;51.92;101120.09;5041248;28;19913;-81
2022/08/09 03:10:24;;;;;;;;;;;;;;;28.36;52.52;101120.03;5051482;28;19913;-81
2022/08/09 03:12:49;;;;;;;;;;;;;;;28.33;52.75;101129.00;5047129;28;19913;-80
2022/08/09 03:15:15;;;;;;;;;;;;;;;28.28;53.03;101128.19;5048980;28;19917;-81
2022/08/09 03:17:40;;;;;;;;;;;;;;;28.37;52.51;101132.56;5017749;28;19917;-81
2022/08/09 03:20:06;;;;;;;;;;;;;;;28.35;52.92;101127.19;5042571;28;20398;-81
2022/08/09 03:22:33;;;;;;;;;;;;;;;28.33;53.06;101136.19;5043320;28;19952;-81
2022/08/09 03:24:58;;;;;;;;;;;;;;;28.36;52.65;101130.75;5045528;28;19920;-82
2022/08/09 03:27:24;;;;;;;;;;;;;;;28.31;52.89;101136.19;5020812;28;19913;-82
2022/08/09 03:29:50;;;;;;;;;;;;;;;28.34;53.15;101132.56;5021471;28;19913;-81
2022/08/09 03:32:15;;;;;;;;;;;;;;;28.33;52.97;101138.88;5048955;28;19946;-81
2022/08/09 03:34:41;;;;;;;;;;;;;;;28.30;52.92;101126.38;5023494;28;19940;-81
2022/08/09 03:37:06;;;;;;;;;;;;;;;28.36;52.81;101134.38;5039859;28;19921;-81
2022/08/09 03:39:32;;;;;;;;;;;;;;;28.30;52.70;101137.13;5025959;28;19913;-81
2022/08/09 03:41:57;;;;;;;;;;;;;;;28.29;52.56;101140.72;5037896;28;19919;-80
2022/08/09 03:44:24;;;;;;;;;;;;;;;28.31;52.81;101135.31;5050258;28;19935;-81
2022/08/09 03:46:50;;;;;;;;;;;;;;;28.32;52.54;101138.00;5034789;28;19916;-81
2022/08/09 03:49:16;;;;;;;;;;;;;;;28.33;53.14;101133.50;5044229;28;20539;-82
2022/08/09 03:51:42;;;;;;;;;;;;;;;28.36;52.79;101139.72;5023319;28;19913;-81
2022/08/09 03:54:08;;;;;;;;;;;;;;;28.34;52.49;101146.94;5046404;28;19913;-81
2022/08/09 03:56:34;;;;;;;;;;;;;;;28.28;52.38;101147.00;5042603;28;19924;-81
2022/08/09 03:58:59;;;;;;;;;;;;;;;28.31;52.44;101135.31;5044511;28;19913;-81
2022/08/09 04:01:25;;;;;;;;;;;;;;;28.34;52.40;101143.31;5044219;28;19916;-81
2022/08/09 04:03:51;;;;;;;;;;;;;;;28.33;52.54;101144.25;5050883;28;19920;-82
2022/08/09 04:06:17;;;;;;;;;;;;;;;28.33;52.37;101145.13;5034076;28;19934;-81
2022/08/09 04:08:42;;;;;;;;;;;;;;;28.29;52.66;101151.44;5017775;28;20390;-82
2022/08/09 04:11:08;;;;;;;;;;;;;;;28.27;53.24;101153.28;5043189;28;19913;-82
2022/08/09 04:13:34;;;;;;;;;;;;;;;28.30;52.42;101147.88;5037652;28;19913;-81
2022/08/09 04:16:00;;;;;;;;;;;;;;;28.30;52.68;101138.91;5034744;28;20373;-81
2022/08/09 04:18:25;;;;;;;;;;;;;;;28.30;52.74;101146.97;5036117;28;19924;-81
2022/08/09 04:20:50;;;;;;;;;;;;;;;28.28;52.66;101138.94;5035954;28;19913;-81
2022/08/09 04:23:16;;;;;;;;;;;;;;;28.21;52.87;101147.97;5034746;28;19920;-82
2022/08/09 04:25:41;;;;;;;;;;;;;;;28.27;53.24;101136.28;5037393;28;20429;-81
2022/08/09 04:28:07;;;;;;;;;;;;;;;28.12;53.05;101142.72;5034793;28;19913;-81
2022/08/09 04:30:32;;;;;;;;;;;;;;;28.08;53.37;101141.88;5041962;28;19924;-81
2022/08/09 04:32:59;;;;;;;;;;;;;;;28.13;53.09;101139.13;5039089;28;19913;-82
2022/08/09 04:35:24;;;;;;;;;;;;;;;28.18;53.21;101135.47;5020086;28;19913;-81
2022/08/09 04:37:49;;;;;;;;;;;;;;;28.20;53.20;101141.72;5038480;28;19936;-82
2022/08/09 04:40:15;;;;;;;;;;;;;;;28.25;53.17;101130.03;5042777;28;19996;-81
2022/08/09 04:42:41;;;;;;;;;;;;;;;28.19;53.55;101131.91;5023675;28;19924;-81
2022/08/09 04:45:07;;;;;;;;;;;;;;;28.22;54.01;101134.53;5042189;28;20353;-81
2022/08/09 04:47:32;;;;;;;;;;;;;;;28.17;53.83;101127.44;5020015;28;19917;-81
2022/08/09 04:49:57;;;;;;;;;;;;;;;28.15;53.88;101131.94;5034466;28;19919;-81
2022/08/09 04:52:27;;;;;;;;;;;;;;;28.15;54.16;101137.31;5036268;28;20022;-81
2022/08/09 04:54:56;;;;;;;;;;;;;;;28.14;54.27;101136.44;5039145;28;20382;-82
2022/08/09 04:57:21;;;;;;;;;;;;;;;28.05;54.27;101127.63;5037695;28;19952;-81
2022/08/09 04:59:47;;;;;;;;;;;;;;;28.00;54.60;101127.66;5040931;28;19952;-81
2022/08/09 05:02:13;;;;;;;;;;;;;;;28.06;54.21;101135.63;5043208;28;19962;-81
2022/08/09 05:04:38;;;;;;;;;;;;;;;28.03;54.63;101138.38;5046180;28;19913;-83
2022/08/09 05:07:04;;;;;;;;;;;;;;;28.10;54.29;101136.50;5054837;28;19939;-83
2022/08/09 05:09:30;;;;;;;;;;;;;;;27.94;55.02;101134.00;5055120;28;19952;-83
2022/08/09 05:11:56;;;;;;;;;;;;;;;27.95;54.66;101134.88;5042544;28;19963;-84
2022/08/09 05:14:21;;;;;;;;;;;;;;;28.06;54.53;101129.38;5027697;28;19955;-84
2022/08/09 05:16:47;;;;;;;;;;;;;;;28.06;54.73;101135.63;5043647;28;19967;-84
2022/08/09 05:19:13;;;;;;;;;;;;;;;27.88;54.93;101134.06;5043802;28;19944;-83
2022/08/09 05:21:39;;;;;;;;;;;;;;;27.94;55.06;101122.34;5032979;28;20370;-83
2022/08/09 05:24:05;;;;;;;;;;;;;;;27.82;55.20;101126.06;5029288;28;20491;-85
2022/08/09 05:26:31;;;;;;;;;;;;;;;27.99;54.72;101125.88;5054554;28;20307;-83
2022/08/09 05:28:57;;;;;;;;;;;;;;;27.96;54.82;101125.91;5048777;28;19913;-83
2022/08/09 05:31:22;;;;;;;;;;;;;;;27.93;55.04;101129.53;5046927;28;19913;-82
2022/08/09 05:33:48;;;;;;;;;;;;;;;27.98;55.01;101125.00;5065384;28;19920;-82
2022/08/09 05:36:13;;;;;;;;;;;;;;;27.95;54.98;101124.16;5046818;28;19960;-83
2022/08/09 05:38:39;;;;;;;;;;;;;;;27.91;55.04;101125.09;5036124;28;19960;-83
2022/08/09 05:41:05;;;;;;;;;;;;;;;27.95;55.02;101127.72;5046756;28;19917;-83
2022/08/09 05:43:34;;;;;;;;;;;;;;;27.97;54.99;101122.34;5035624;28;19916;-84
2022/08/09 05:46:00;;;;;;;;;;;;;;;28.00;54.69;101127.66;5043406;28;20309;-83
2022/08/09 05:48:25;;;;;;;;;;;;;;;27.94;54.78;101131.31;5050223;28;19963;-82
2022/08/09 05:50:51;;;;;;;;;;;;;;;27.84;55.09;101118.88;5052958;28;19951;-82
2022/08/09 05:53:17;;;;;;;;;;;;;;;27.94;54.84;101130.41;5046412;28;20016;-83
2022/08/09 05:55:42;;;;;;;;;;;;;;;27.97;54.80;101131.28;5045531;28;19956;-84
2022/08/09 05:58:08;;;;;;;;;;;;;;;27.88;55.12;101126.03;5030405;28;20528;-82
2022/08/09 06:00:33;;;;;;;;;;;;;;;27.78;55.52;101121.63;5053092;28;19912;-83
2022/08/09 06:03:00;;;;;;;;;;;;;;;27.79;55.45;101128.75;5024518;28;20382;-83
2022/08/09 06:05:26;;;;;;;;;;;;;;;27.79;55.39;101137.72;5018110;28;20019;-83
2022/08/09 06:07:52;;;;;;;;;;;;;;;27.87;55.26;101142.13;5047310;28;20341;-85
2022/08/09 06:10:18;;;;;;;;;;;;;;;27.87;54.93;101134.97;5019121;28;19970;-84
2022/08/09 06:12:56;;;;;;;;;;;;;;;27.92;55.09;101142.97;5039835;28;20007;-84
2022/08/09 06:15:31;;;;;;;;;;;;;;;27.86;55.18;101138.56;5041098;28;19917;-83
2022/08/09 06:17:56;;;;;;;;;;;;;;;27.89;55.29;101145.69;5037385;28;19931;-82
2022/08/09 06:23:11;;;;;;;;;;;;;;;27.88;54.95;101143.94;5035164;28;19967;-83
2022/08/09 06:25:57;;;;;;;;;;;;;;;27.97;54.84;101138.44;5043776;28;19917;-84
2022/08/09 06:28:22;;;;;;;;;;;;;;;28.04;55.06;101133.88;5015698;28;19917;-84
2022/08/09 06:31:08;;;;;;;;;;;;;;;28.01;54.98;101141.06;5013599;28;20584;-83
2022/08/09 06:33:35;;;;;;;;;;;;;;;28.03;54.67;101130.31;5024633;28;19912;-84
2022/08/09 06:36:00;;;;;;;;;;;;;;;28.01;55.04;101142.88;5020343;28;19929;-83
2022/08/09 06:38:29;;;;;;;;;;;;;;;27.98;54.72;101134.84;5015266;28;19913;-84
2022/08/09 06:40:55;;;;;;;;;;;;;;;27.99;54.62;101136.63;5017232;28;19919;-83
2022/08/09 06:43:23;;;;;;;;;;;;;;;27.99;54.64;101142.88;5052660;28;19917;-83
2022/08/09 06:45:48;;;;;;;;;;;;;;;27.97;54.59;101138.44;5031376;28;19966;-83
2022/08/09 06:48:14;;;;;;;;;;;;;;;28.06;54.42;101141.00;5048111;28;19939;-84
2022/08/09 06:50:42;;;;;;;;;;;;;;;27.93;54.47;101142.94;5057887;28;19920;-84
2022/08/09 06:53:07;;;;;;;;;;;;;;;28.01;54.03;101140.19;5007637;28;20022;-84
2022/08/09 06:55:33;;;;;;;;;;;;;;;27.96;54.24;101144.69;5049213;28;19913;-82
2022/08/09 06:58:01;;;;;;;;;;;;;;;27.96;54.19;101140.25;5046809;28;19924;-83
2022/08/09 07:00:28;;;;;;;;;;;;;;;27.88;54.86;101142.13;5029683;28;19995;-83
2022/08/09 07:02:53;;;;;;;;;;;;;;;27.91;54.49;101143.88;5032066;28;19913;-83
2022/08/09 07:05:19;;;;;;;;;;;;;;;27.98;54.27;101142.88;5052882;28;19928;-83
2022/08/09 07:07:48;;;;;;;;;;;;;;;27.99;54.53;101145.56;5053520;28;19912;-83
2022/08/09 07:10:27;;;;;;;;;;;;;;;28.01;54.60;101143.75;5042173;28;20390;-83
2022/08/09 07:12:52;;;;;;;;;;;;;;;28.02;54.62;101147.31;5023230;28;19967;-83
2022/08/09 07:15:18;;;;;;;;;;;;;;;28.02;54.16;101134.81;5046092;28;20398;-83
2022/08/09 07:17:43;;;;;;;;;;;;;;;27.99;54.34;101140.19;5042237;28;19952;-84
2022/08/09 07:20:09;;;;;;;;;;;;;;;28.03;54.34;101141.06;5042456;28;19996;-85
2022/08/09 07:22:35;;;;;;;;;;;;;;;28.09;54.17;101145.44;5039958;28;19913;-85
2022/08/09 07:25:04;;;;;;;;;;;;;;;27.89;53.23;101143.88;5032189;28;19922;-84
2022/08/09 07:27:29;;;;;;;;;;;;;;;27.93;53.52;101140.25;5038009;28;19924;-84
2022/08/09 07:29:55;;;;;;;;;;;;;;;27.86;53.55;101153.78;5043008;28;19917;-83
2022/08/09 07:32:20;;;;;;;;;;;;;;;28.00;53.66;101159.88;5053240;28;19920;-83
2022/08/09 07:34:46;;;;;;;;;;;;;;;28.00;53.27;101151.81;5043153;28;19917;-82
2022/08/09 07:37:31;;;;;;;;;;;;;;;28.11;53.52;101159.72;5043013;28;19974;-83
2022/08/09 07:39:56;;;;;;;;;;;;;;;28.08;52.23;101166.03;5028645;28;20259;-83
2022/08/09 07:42:22;;;;;;;;;;;;;;;28.01;52.40;101175.09;5024885;28;19982;-84
2022/08/09 07:44:48;;;;;;;;;;;;;;;27.98;52.40;101164.38;5043893;28;19917;-84
2022/08/09 07:47:13;;;;;;;;;;;;;;;27.99;53.00;101175.09;5049283;28;20321;-84
2022/08/09 07:49:39;;;;;;;;;;;;;;;27.95;52.93;101178.72;5054013;28;19913;-84
2022/08/09 07:52:04;;;;;;;;;;;;;;;28.01;52.85;101184.03;5048086;28;19925;-85
2022/08/09 07:54:30;;;;;;;;;;;;;;;27.99;52.41;101175.09;5048135;28;19913;-83
2022/08/09 07:56:56;;;;;;;;;;;;;;;27.96;52.54;101176.91;5054599;28;20421;-84
2022/08/09 07:59:21;;;;;;;;;;;;;;;28.05;51.60;101178.63;5051455;28;20299;-84
2022/08/09 08:01:47;;;;;;;;;;;;;;;28.03;52.63;101173.28;5030110;28;19945;-84
2022/08/09 08:04:12;;;;;;;;;;;;;;;27.99;51.24;101180.47;5042369;28;20334;-82
2022/08/09 08:06:37;;;;;;;;;;;;;;;28.01;51.24;101173.28;5054598;28;19967;-82
2022/08/09 08:09:03;;;;;;;;;;;;;;;27.99;51.12;101172.41;5046549;28;19920;-82
2022/08/09 08:11:28;;;;;;;;;;;;;;;28.01;51.26;101181.34;5044629;28;20028;-83
2022/08/09 08:13:54;;;;;;;;;;;;;;;28.08;51.13;101179.47;5054097;28;19917;-82
2022/08/09 08:16:20;;;;;;;;;;;;;;;28.05;50.91;101176.81;5050050;28;20514;-81
2022/08/09 08:18:46;;;;;;;;;;;;;;;28.10;52.06;101169.59;5021231;28;19920;-82
2022/08/09 08:21:11;;;;;;;;;;;;;;;28.10;51.51;101174.09;5058842;28;20003;-82
2022/08/09 08:23:37;;;;;;;;;;;;;;;28.09;51.06;101166.91;5043850;28;19916;-81
2022/08/09 08:26:02;;;;;;;;;;;;;;;28.16;51.06;101172.22;5041628;28;19975;-81
2022/08/09 08:28:29;;;;;;;;;;;;;;;28.18;51.35;101174.88;5034627;28;19924;-82
2022/08/09 08:30:54;;;;;;;;;;;;;;;28.16;52.08;101174.91;5032750;28;19951;-82
2022/08/09 08:33:45;;;;;;;;;;;;;;;28.21;51.25;101175.75;5028783;28;19952;-82
2022/08/09 08:36:10;;;;;;;;;;;;;;;28.20;50.61;101159.63;5040015;28;20461;-82
2022/08/09 08:38:38;;;;;;;;;;;;;;;28.12;49.97;101175.84;5039815;28;20215;-82
2022/08/09 08:41:04;;;;;;;;;;;;;;;28.16;50.28;101165.97;5043439;28;19982;-84
2022/08/09 08:43:29;;;;;;;;;;;;;;;28.17;49.11;101160.56;5025616;28;19912;-82
2022/08/09 08:45:56;;;;;;;;;;;;;;;28.18;49.22;101166.81;5039757;28;19924;-85
2022/08/09 08:48:22;;;;;;;;;;;;;;;28.16;49.94;101176.69;5022718;28;19966;-84
2022/08/09 08:50:48;;;;;;;;;;;;;;;28.20;50.11;101167.69;5021388;28;19913;-84
2022/08/09 08:53:14;;;;;;;;;;;;;;;28.23;49.61;101163.16;5029107;28;19967;-85
2022/08/09 08:55:40;;;;;;;;;;;;;;;28.16;48.56;101169.53;5036475;28;19913;-85
2022/08/09 08:58:06;;;;;;;;;;;;;;;28.20;49.33;101162.31;5047428;28;20446;-84
2022/08/09 09:00:31;;;;;;;;;;;;;;;28.15;49.11;101162.38;5023838;28;19944;-84
2022/08/09 09:02:58;;;;;;;;;;;;;;;28.22;48.37;101158.72;5033021;28;19917;-84
2022/08/09 09:05:26;;;;;;;;;;;;;;;28.22;47.72;101164.06;5038934;28;19924;-84
2022/08/09 09:07:52;;;;;;;;;;;;;;;28.23;48.26;101151.53;5043304;28;19916;-85
2022/08/09 09:10:18;;;;;;;;;;;;;;;28.19;48.04;101156.06;5015250;28;20313;-84
2022/08/09 09:12:44;;;;;;;;;;;;;;;28.19;47.68;101155.16;5026029;28;19913;-84
2022/08/09 09:15:09;;;;;;;;;;;;;;;28.20;47.47;101147.09;5042564;28;20432;-84
2022/08/09 09:17:35;;;;;;;;;;;;;;;28.18;46.74;101148.03;5049397;28;19968;-84
2022/08/09 09:20:05;;;;;;;;;;;;;;;28.20;46.86;101148.91;5033952;28;19924;-83
2022/08/09 09:22:32;;;;;;;;;;;;;;;28.24;47.58;101153.31;5051508;28;19920;-83
2022/08/09 09:24:57;;;;;;;;;;;;;;;28.19;46.92;101144.41;5020356;28;19920;-83
2022/08/09 09:27:27;;;;;;;;;;;;;;;28.23;48.17;101148.84;5024183;28;19917;-82
2022/08/09 09:29:53;;;;;;;;;;;;;;;28.31;47.86;101152.31;5016505;28;19913;-84
2022/08/09 09:32:22;;;;;;;;;;;;;;;28.22;47.59;101150.66;5032390;28;20378;-84
2022/08/09 09:35:04;;;;;;;;;;;;;;;28.25;47.22;101149.72;5040599;28;19913;-84
2022/08/09 09:37:30;;;;;;;;;;;;;;;28.29;47.45;101151.44;5020780;28;19921;-85
2022/08/09 09:39:56;;;;;;;;;;;;;;;28.27;48.31;101152.38;5039883;28;19921;-85
2022/08/09 09:42:23;;;;;;;;;;;;;;;28.35;48.18;101146.00;5052656;28;19921;-84
2022/08/09 09:44:54;;;;;;;;;;;;;;;28.25;48.27;101148.84;5019995;28;19913;-83
2022/08/09 09:47:20;;;;;;;;;;;;;;;28.31;48.80;101143.38;5029027;28;20016;-83
2022/08/09 09:49:49;;;;;;;;;;;;;;;28.29;48.49;101138.03;5020272;28;20004;-84
2022/08/09 09:52:14;;;;;;;;;;;;;;;28.28;47.98;101146.09;5029359;28;20317;-83
2022/08/09 09:54:42;;;;;;;;;;;;;;;28.29;48.45;101137.16;5033219;28;19943;-83
2022/08/09 09:57:18;;;;;;;;;;;;;;;28.27;47.83;101142.53;5037972;28;19917;-83
2022/08/09 09:59:44;;;;;;;;;;;;;;;28.24;48.01;101137.22;5053895;28;19921;-83
2022/08/09 10:02:10;;;;;;;;;;;;;;;28.29;49.73;101139.81;5038286;28;20375;-84
2022/08/09 10:04:36;;;;;;;;;;;;;;;28.30;49.15;101137.13;5048018;28;19923;-84
2022/08/09 10:07:01;;;;;;;;;;;;;;;28.33;49.83;101142.44;5039823;28;19925;-84
2022/08/09 10:09:26;;;;;;;;;;;;;;;28.36;49.18;101137.06;5036081;28;19920;-83
2022/08/09 10:12:00;;;;;;;;;;;;;;;28.33;49.84;101131.69;5028606;28;19923;-84
2022/08/09 10:14:29;;;;;;;;;;;;;;;28.27;48.03;101144.34;5016585;28;19913;-84
2022/08/09 10:16:54;;;;;;;;;;;;;;;28.28;47.10;101119.22;5019078;28;20014;-84
2022/08/09 10:19:20;;;;;;;;;;;;;;;28.27;48.16;101145.22;5039713;28;19967;-83
2022/08/09 10:21:47;;;;;;;;;;;;;;;28.33;47.10;101125.44;5024115;28;19921;-84
2022/08/09 10:24:12;;;;;;;;;;;;;;;28.33;47.76;101122.75;5031749;28;20662;-84
2022/08/09 10:26:38;;;;;;;;;;;;;;;28.31;47.49;101135.31;5031899;28;19917;-84
2022/08/09 10:29:04;;;;;;;;;;;;;;;28.31;47.29;101129.94;5048770;28;19966;-83
2022/08/09 10:31:30;;;;;;;;;;;;;;;28.32;47.68;101124.56;5027202;28;20421;-84
2022/08/09 10:33:55;;;;;;;;;;;;;;;28.35;47.65;101126.31;5050607;28;19952;-84
2022/08/09 10:36:23;;;;;;;;;;;;;;;28.34;47.48;101124.53;5051499;28;20011;-85
2022/08/09 10:38:49;;;;;;;;;;;;;;;28.41;48.51;101123.53;5031024;28;19917;-84
2022/08/09 10:41:15;;;;;;;;;;;;;;;28.41;48.19;101126.22;5051069;28;19970;-85
2022/08/09 10:43:45;;;;;;;;;;;;;;;28.43;48.92;101129.78;5032817;28;19916;-85
2022/08/09 10:46:29;;;;;;;;;;;;;;;28.46;48.53;101121.66;5051411;28;20024;-85
2022/08/09 10:48:54;;;;;;;;;;;;;;;28.43;48.93;101122.59;5052387;28;20295;-85
2022/08/09 10:51:23;;;;;;;;;;;;;;;28.44;48.47;101131.53;5047930;28;19996;-84
2022/08/09 10:54:04;;;;;;;;;;;;;;;28.48;49.18;101117.16;5057662;28;20015;-84
2022/08/09 10:56:40;;;;;;;;;;;;;;;28.47;47.71;101118.09;5024950;28;19939;-84
2022/08/09 10:59:23;;;;;;;;;;;;;;;28.47;48.55;101118.09;5043070;28;19913;-83
2022/08/09 11:01:49;;;;;;;;;;;;;;;28.41;47.15;101123.53;5049991;28;19913;-83
2022/08/09 11:04:22;;;;;;;;;;;;;;;28.47;47.51;101117.19;5054861;28;19923;-84
2022/08/09 11:07:00;;;;;;;;;;;;;;;28.47;47.82;101112.72;5020790;28;19913;-86
2022/08/09 11:09:37;;;;;;;;;;;;;;;28.43;46.20;101116.34;5039477;28;19913;-84
2022/08/09 11:12:15;;;;;;;;;;;;;;;28.42;47.14;101117.25;5039229;28;19948;-84
2022/08/09 11:14:43;;;;;;;;;;;;;;;28.42;46.56;101118.13;5048957;28;19917;-84
2022/08/09 11:17:34;;;;;;;;;;;;;;;28.47;47.63;101110.03;5057329;28;20447;-84
2022/08/09 11:20:09;;;;;;;;;;;;;;;28.57;49.05;101114.38;5026858;28;19966;-83
2022/08/09 11:22:43;;;;;;;;;;;;;;;28.56;48.18;101109.91;5028725;28;19917;-84
2022/08/09 11:25:08;;;;;;;;;;;;;;;28.58;48.93;101116.16;5019021;28;19963;-83
2022/08/09 11:27:37;;;;;;;;;;;;;;;28.57;49.56;101113.47;5037818;28;19921;-83
2022/08/09 11:30:04;;;;;;;;;;;;;;;28.56;49.03;101109.03;5044523;28;19913;-83
2022/08/09 11:32:41;;;;;;;;;;;;;;;28.50;48.56;101112.69;5054132;28;19920;-85
2022/08/09 11:35:19;;;;;;;;;;;;;;;28.61;48.07;101115.22;5036268;28;19917;-85
2022/08/09 11:37:45;;;;;;;;;;;;;;;28.50;47.82;101120.75;5046200;28;19921;-82
2022/08/09 11:40:12;;;;;;;;;;;;;;;28.57;47.50;101119.72;5045579;28;19917;-84
2022/08/09 11:42:40;;;;;;;;;;;;;;;28.57;47.99;101124.22;5036038;28;20357;-83
2022/08/09 11:45:16;;;;;;;;;;;;;;;28.59;48.58;101127.78;5035836;28;19967;-82
2022/08/09 11:47:51;;;;;;;;;;;;;;;28.52;47.69;101124.31;5045891;28;19916;-83
2022/08/09 11:50:17;;;;;;;;;;;;;;;28.62;49.95;101135.81;5057007;28;19928;-84
2022/08/09 11:52:57;;;;;;;;;;;;;;;28.55;50.77;101123.38;5016746;28;19913;-82
2022/08/09 11:55:30;;;;;;;;;;;;;;;28.57;50.87;101126.91;5035332;28;19913;-83
2022/08/09 11:57:56;;;;;;;;;;;;;;;28.62;50.80;101120.56;5048559;28;19920;-83
2022/08/09 12:00:22;;;;;;;;;;;;;;;28.58;49.88;101121.53;5044345;28;19913;-83
2022/08/09 12:02:47;;;;;;;;;;;;;;;28.63;49.75;101118.75;5008976;28;20394;-83
2022/08/09 12:05:13;;;;;;;;;;;;;;;28.62;50.02;101117.88;5046420;28;19920;-84
2022/08/09 12:07:38;;;;;;;;;;;;;;;28.60;49.57;101110.75;5043965;28;20401;-84
2022/08/09 12:10:04;;;;;;;;;;;;;;;28.54;49.32;101121.59;5049148;28;19920;-84
2022/08/09 12:12:43;;;;;;;;;;;;;;;28.58;48.86;101112.59;5017530;28;19924;-84
2022/08/09 12:15:24;;;;;;;;;;;;;;;28.63;49.53;101108.00;5039934;28;19917;-85
2022/08/09 12:17:50;;;;;;;;;;;;;;;28.62;49.09;101115.19;5029637;28;19928;-85
2022/08/09 12:20:25;;;;;;;;;;;;;;;28.63;47.54;101094.56;5048685;28;19939;-83
2022/08/09 12:22:52;;;;;;;;;;;;;;;28.63;47.80;101100.84;5033183;28;20353;-84
2022/08/09 12:25:18;;;;;;;;;;;;;;;28.68;48.50;101102.56;5023322;28;20004;-85
2022/08/09 12:27:44;;;;;;;;;;;;;;;28.70;48.38;101101.66;5034546;28;20434;-83
2022/08/09 12:30:10;;;;;;;;;;;;;;;28.69;49.03;101101.66;5024626;28;19916;-84
2022/08/09 12:32:35;;;;;;;;;;;;;;;28.78;49.25;101094.31;5019136;28;20383;-84
2022/08/09 12:35:02;;;;;;;;;;;;;;;28.80;48.31;101094.31;5043548;28;20038;-83
2022/08/09 12:37:46;;;;;;;;;;;;;;;28.72;48.58;101088.16;5023140;28;19927;-84
2022/08/09 12:40:11;;;;;;;;;;;;;;;28.72;49.35;101098.91;5046946;28;19968;-84
2022/08/09 12:42:41;;;;;;;;;;;;;;;28.74;47.74;101097.97;5028140;28;19995;-84